createdAt,value
2022-12-17T00:01:48.929Z,69.32
2022-12-17T00:04:34.439Z,68.82
2022-12-17T00:07:19.954Z,68.25
2022-12-17T00:10:05.346Z,64.15
2022-12-17T00:12:50.714Z,62.83
2022-12-17T00:15:37.217Z,62.40
2022-12-17T00:18:23.698Z,61.88
2022-12-17T00:21:13.336Z,60.15
2022-12-17T00:26:43.816Z,56.20
2022-12-17T00:29:29.540Z,56.92
2022-12-17T00:32:15.026Z,55.45
2022-12-17T00:35:00.508Z,53.72
2022-12-17T00:37:46.104Z,52.65
2022-12-17T00:40:48.476Z,51.97
2022-12-17T00:43:34.186Z,51.17
2022-12-17T00:46:20.018Z,51.00
2022-12-17T00:49:05.555Z,50.97
2022-12-17T00:51:50.945Z,49.80
2022-12-17T00:54:36.503Z,47.95
2022-12-17T00:57:22.048Z,48.05
2022-12-17T01:00:07.255Z,46.38
2022-12-17T01:02:52.887Z,46.75
2022-12-17T01:05:39.272Z,47.03
2022-12-17T01:08:28.942Z,46.17
2022-12-17T01:14:02.853Z,44.10
2022-12-17T01:16:48.349Z,42.20
2022-12-17T01:19:33.711Z,42.08
2022-12-17T01:22:19.328Z,43.25
2022-12-17T01:25:04.902Z,40.13
2022-12-17T01:27:50.430Z,40.50
2022-12-17T01:30:36.072Z,39.13
2022-12-17T01:33:26.091Z,40.22
2022-12-17T01:36:15.062Z,38.65
2022-12-17T01:39:00.645Z,38.22
2022-12-17T01:41:46.632Z,37.10
2022-12-17T01:44:53.554Z,36.75
2022-12-17T01:47:39.107Z,37.55
2022-12-17T01:50:24.787Z,34.83
2022-12-17T01:53:12.884Z,35.13
2022-12-17T01:55:58.171Z,35.03
2022-12-17T01:58:43.874Z,34.10
2022-12-17T02:01:30.099Z,33.67
2022-12-17T02:04:15.519Z,31.95
2022-12-17T02:07:10.867Z,31.92
2022-12-17T02:10:26.422Z,34.38
2022-12-17T02:13:15.167Z,31.90
2022-12-17T02:16:07.999Z,30.97
2022-12-17T02:19:04.435Z,29.92
2022-12-17T02:21:50.517Z,28.90
2022-12-17T02:24:47.711Z,30.13
2022-12-17T02:27:33.655Z,29.58
2022-12-17T02:30:25.305Z,29.48
2022-12-17T02:33:11.974Z,29.23
2022-12-17T02:36:05.194Z,28.25
2022-12-17T02:38:51.382Z,28.38
2022-12-17T02:41:47.026Z,26.48
2022-12-17T02:44:34.631Z,27.63
2022-12-17T02:47:23.051Z,26.27
2022-12-17T02:50:08.697Z,25.88
2022-12-17T02:55:45.151Z,26.88
2022-12-17T02:58:30.622Z,25.63
2022-12-17T03:01:16.233Z,25.85
2022-12-17T03:04:01.524Z,25.02
2022-12-17T03:06:46.968Z,25.38
2022-12-17T03:09:32.428Z,25.13
2022-12-17T03:12:17.616Z,24.85
2022-12-17T03:15:04.184Z,25.20
2022-12-17T03:17:49.634Z,24.05
2022-12-17T03:20:35.161Z,22.73
2022-12-17T03:23:24.745Z,23.90
2022-12-17T03:26:09.975Z,24.60
2022-12-17T03:28:55.259Z,22.40
2022-12-17T03:31:40.906Z,23.02
2022-12-17T03:34:26.286Z,23.42
2022-12-17T03:37:11.754Z,22.00
2022-12-17T03:39:57.289Z,22.38
2022-12-17T03:42:42.803Z,22.48
2022-12-17T03:45:28.755Z,21.83
2022-12-17T03:48:28.026Z,22.90
2022-12-17T03:51:14.108Z,21.52
2022-12-17T03:54:00.026Z,21.80
2022-12-17T03:56:46.029Z,21.55
2022-12-17T03:59:31.682Z,21.90
2022-12-17T04:02:17.517Z,20.23
2022-12-17T04:05:03.016Z,20.42
2022-12-17T04:07:48.486Z,21.10
2022-12-17T04:10:34.102Z,20.55
2022-12-17T04:13:19.659Z,20.13
2022-12-17T04:16:05.136Z,20.27
2022-12-17T04:18:50.421Z,19.17
2022-12-17T04:21:35.784Z,19.55
2022-12-17T04:24:21.404Z,19.20
2022-12-17T04:27:06.820Z,19.15
2022-12-17T04:29:52.230Z,19.08
2022-12-17T04:32:37.852Z,18.05
2022-12-17T04:35:23.763Z,18.95
2022-12-17T04:38:09.411Z,18.70
2022-12-17T04:40:54.868Z,18.05
2022-12-17T04:43:40.275Z,18.70
2022-12-17T04:46:26.009Z,18.45
2022-12-17T04:49:11.420Z,16.85
2022-12-17T04:51:56.849Z,17.70
2022-12-17T04:54:42.347Z,17.90
2022-12-17T04:57:27.830Z,18.30
2022-12-17T05:00:13.330Z,17.63
2022-12-17T05:02:58.903Z,17.05
2022-12-17T05:05:44.202Z,17.13
2022-12-17T05:08:29.562Z,17.73
2022-12-17T05:11:19.524Z,17.48
2022-12-17T05:14:05.001Z,16.52
2022-12-17T05:16:50.482Z,16.85
2022-12-17T05:19:35.945Z,16.90
2022-12-17T05:22:21.568Z,16.00
2022-12-17T05:25:06.971Z,16.75
2022-12-17T05:27:52.452Z,15.38
2022-12-17T05:30:54.761Z,16.10
2022-12-17T05:33:40.220Z,15.80
2022-12-17T05:36:25.884Z,15.23
2022-12-17T05:39:11.218Z,14.80
2022-12-17T05:41:56.709Z,15.63
2022-12-17T05:44:42.122Z,14.85
2022-12-17T05:47:27.615Z,14.73
2022-12-17T05:50:13.162Z,14.93
2022-12-17T05:52:58.544Z,15.07
2022-12-17T05:55:44.155Z,13.70
2022-12-17T05:58:30.038Z,14.02
2022-12-17T06:01:21.360Z,13.85
2022-12-17T06:04:06.931Z,13.43
2022-12-17T06:06:52.190Z,14.35
2022-12-17T06:09:37.659Z,13.77
2022-12-17T06:12:23.209Z,13.38
2022-12-17T06:15:08.683Z,12.88
2022-12-17T06:17:54.100Z,12.98
2022-12-17T06:20:39.635Z,12.43
2022-12-17T06:23:29.259Z,13.30
2022-12-17T06:29:00.859Z,12.32
2022-12-17T06:31:47.154Z,12.90
2022-12-17T06:34:32.591Z,11.27
2022-12-17T06:37:17.962Z,11.40
2022-12-17T06:40:03.533Z,11.70
2022-12-17T06:42:48.972Z,11.52
2022-12-17T06:45:34.434Z,11.20
2022-12-17T06:48:21.457Z,11.75
2022-12-17T06:51:06.971Z,10.43
2022-12-17T06:53:52.375Z,10.75
2022-12-17T06:56:37.896Z,11.48
2022-12-17T06:59:23.347Z,11.93
2022-12-17T07:02:09.029Z,10.65
2022-12-17T07:04:54.410Z,11.70
2022-12-17T07:07:39.984Z,11.07
2022-12-17T07:10:25.908Z,10.30
2022-12-17T07:13:11.292Z,10.18
2022-12-17T07:15:56.948Z,10.80
2022-12-17T07:18:42.536Z,11.00
2022-12-17T07:21:27.688Z,10.90
2022-12-17T07:24:12.997Z,10.43
2022-12-17T07:26:58.363Z,11.07
2022-12-17T07:29:44.100Z,10.35
2022-12-17T07:32:29.580Z,9.93
2022-12-17T07:35:15.072Z,8.80
2022-12-17T07:38:00.577Z,9.27
2022-12-17T07:40:46.051Z,10.40
2022-12-17T07:43:32.271Z,9.85
2022-12-17T07:46:17.710Z,10.10
2022-12-17T07:49:03.292Z,9.48
2022-12-17T07:51:48.751Z,9.43
2022-12-17T07:54:34.145Z,10.02
2022-12-17T07:57:19.747Z,10.30
2022-12-17T08:00:05.225Z,10.15
2022-12-17T08:02:50.784Z,9.02
2022-12-17T08:05:36.154Z,9.18
2022-12-17T08:08:31.822Z,9.18
2022-12-17T08:11:17.227Z,9.45
2022-12-17T08:14:02.767Z,9.70
2022-12-17T08:16:48.309Z,9.77
2022-12-17T08:19:33.654Z,10.10
2022-12-17T08:22:19.182Z,8.57
2022-12-17T08:25:04.664Z,9.38
2022-12-17T08:27:50.059Z,8.88
2022-12-17T08:30:35.744Z,9.32
2022-12-17T08:33:22.882Z,8.82
2022-12-17T08:36:15.399Z,9.70
2022-12-17T08:39:00.842Z,9.23
2022-12-17T08:41:52.635Z,8.82
2022-12-17T08:44:39.877Z,8.73
2022-12-17T08:47:25.458Z,9.63
2022-12-17T08:50:10.998Z,9.00
2022-12-17T08:52:56.427Z,8.88
2022-12-17T08:55:41.958Z,8.57
2022-12-17T08:58:27.511Z,8.45
2022-12-17T09:01:13.085Z,9.25
2022-12-17T09:03:58.482Z,8.45
2022-12-17T09:06:43.974Z,8.10
2022-12-17T09:09:29.612Z,38.45
2022-12-17T09:12:15.157Z,70.32
2022-12-17T09:15:00.643Z,65.65
2022-12-17T09:17:46.218Z,66.05
2022-12-17T09:20:31.711Z,75.20
2022-12-17T09:23:17.203Z,73.40
2022-12-17T09:26:13.319Z,65.38
2022-12-17T09:28:58.957Z,58.58
2022-12-17T09:31:44.456Z,54.13
2022-12-17T09:34:30.353Z,48.65
2022-12-17T09:37:15.856Z,42.17
2022-12-17T09:40:01.319Z,41.00
2022-12-17T09:43:00.157Z,35.40
2022-12-17T09:45:54.775Z,34.22
2022-12-17T09:49:20.211Z,31.92
2022-12-17T09:52:05.653Z,29.77
2022-12-17T09:55:03.704Z,28.58
2022-12-17T09:57:53.258Z,28.25
2022-12-17T10:00:41.523Z,26.40
2022-12-17T10:03:36.036Z,64.97
2022-12-17T10:06:35.849Z,76.00
2022-12-17T10:09:28.396Z,74.95
2022-12-17T10:12:14.658Z,66.88
2022-12-17T10:15:00.045Z,57.60
2022-12-17T10:17:45.463Z,54.60
2022-12-17T10:23:44.684Z,45.72
2022-12-17T10:26:36.095Z,46.67
2022-12-17T10:29:32.896Z,92.65
2022-12-17T10:32:30.614Z,89.88
2022-12-17T10:35:16.085Z,77.13
2022-12-17T10:38:01.311Z,69.60
2022-12-17T10:40:49.819Z,66.47
2022-12-17T10:43:49.098Z,61.30
2022-12-17T10:46:46.800Z,57.60
2022-12-17T10:52:38.453Z,53.45
2022-12-17T10:55:34.432Z,52.33
2022-12-17T10:58:21.834Z,47.17
2022-12-17T11:01:21.838Z,42.22
2022-12-17T11:04:17.597Z,44.47
2022-12-17T11:07:10.496Z,43.45
2022-12-17T11:10:06.990Z,40.10
2022-12-17T11:13:02.282Z,39.90
2022-12-17T11:16:17.500Z,37.55
2022-12-17T11:19:34.461Z,37.20
2022-12-17T11:22:23.741Z,37.13
2022-12-17T11:25:26.406Z,35.33
2022-12-17T11:28:24.116Z,34.70
2022-12-17T11:31:38.800Z,32.65
2022-12-17T11:34:46.772Z,31.42
2022-12-17T11:37:32.202Z,31.35
2022-12-17T11:40:39.796Z,29.45
2022-12-17T11:43:42.345Z,29.25
2022-12-17T11:46:39.552Z,29.25
2022-12-17T11:49:40.506Z,29.58
2022-12-17T11:52:46.353Z,27.85
2022-12-17T11:55:46.674Z,25.85
2022-12-17T11:58:42.785Z,27.70
2022-12-17T12:01:28.145Z,25.23
2022-12-17T12:04:35.274Z,23.83
2022-12-17T12:07:29.446Z,24.40
2022-12-17T12:10:58.184Z,23.20
2022-12-17T12:13:59.177Z,21.90
2022-12-17T12:16:50.210Z,22.33
2022-12-17T12:20:11.900Z,19.40
2022-12-17T12:23:27.746Z,19.60
2022-12-17T12:26:25.844Z,20.02
2022-12-17T12:29:17.153Z,19.73
2022-12-17T12:32:26.352Z,18.80
2022-12-17T12:35:11.988Z,19.73
2022-12-17T12:37:58.091Z,19.02
2022-12-17T12:41:28.933Z,19.38
2022-12-17T12:44:17.674Z,17.67
2022-12-17T12:47:07.505Z,18.07
2022-12-17T12:49:59.676Z,17.42
2022-12-17T12:52:45.583Z,16.70
2022-12-17T12:55:31.069Z,17.38
2022-12-17T12:58:17.008Z,16.88
2022-12-17T13:01:05.662Z,16.17
2022-12-17T13:03:54.021Z,16.40
2022-12-17T13:06:49.144Z,15.15
2022-12-17T13:09:15.966Z,15.48
2022-12-17T13:11:50.950Z,15.52
2022-12-17T13:14:27.067Z,15.63
2022-12-17T13:16:55.798Z,16.15
2022-12-17T13:19:33.478Z,14.20
2022-12-17T13:22:10.564Z,14.60
2022-12-17T13:24:37.572Z,15.65
2022-12-17T13:27:04.895Z,13.93
2022-12-17T13:29:37.143Z,14.75
2022-12-17T13:32:09.076Z,14.02
2022-12-17T13:34:44.287Z,13.63
2022-12-17T13:37:29.047Z,13.73
2022-12-17T13:40:04.396Z,13.55
2022-12-17T13:42:34.603Z,13.38
2022-12-17T13:47:32.425Z,12.77
2022-12-17T13:50:32.849Z,12.70
2022-12-17T13:52:48.622Z,12.75
2022-12-17T13:55:23.756Z,12.88
2022-12-17T13:57:51.591Z,13.40
2022-12-17T14:00:21.635Z,12.75
2022-12-17T14:02:49.049Z,12.93
2022-12-17T14:05:43.653Z,12.43
2022-12-17T14:08:16.680Z,12.10
2022-12-17T14:11:13.746Z,11.95
2022-12-17T14:16:09.911Z,11.80
2022-12-17T14:18:48.255Z,12.38
2022-12-17T14:21:15.196Z,11.57
2022-12-17T14:23:42.202Z,11.00
2022-12-17T14:26:12.890Z,12.20
2022-12-17T14:28:50.390Z,10.65
2022-12-17T14:31:28.199Z,11.85
2022-12-17T14:34:07.452Z,11.85
2022-12-17T14:36:36.727Z,11.15
2022-12-17T14:39:29.938Z,10.87
2022-12-17T14:42:29.147Z,10.82
2022-12-17T14:45:03.603Z,11.18
2022-12-17T14:47:35.098Z,11.32
2022-12-17T14:50:13.848Z,10.50
2022-12-17T14:52:53.159Z,11.07
2022-12-17T14:55:29.060Z,10.40
2022-12-17T14:58:08.998Z,9.73
2022-12-17T15:00:39.263Z,10.60
2022-12-17T15:03:06.810Z,11.13
2022-12-17T15:05:35.295Z,10.50
2022-12-17T15:08:02.155Z,10.02
2022-12-17T15:10:28.942Z,10.45
2022-12-17T15:12:56.712Z,10.18
2022-12-17T15:15:23.541Z,9.98
2022-12-17T15:17:50.396Z,10.52
2022-12-17T15:20:19.716Z,10.35
2022-12-17T15:22:47.065Z,10.18
2022-12-17T15:25:15.608Z,9.80
2022-12-17T15:27:42.512Z,9.85
2022-12-17T15:30:16.777Z,8.95
2022-12-17T15:32:43.899Z,9.98
2022-12-17T15:35:12.293Z,9.45
2022-12-17T15:37:39.436Z,9.13
2022-12-17T15:40:07.268Z,9.75
2022-12-17T15:42:52.530Z,9.55
2022-12-17T15:45:19.432Z,9.05
2022-12-17T15:47:46.283Z,9.30
2022-12-17T15:50:13.056Z,8.65
2022-12-17T15:52:39.859Z,9.02
2022-12-17T15:55:07.009Z,9.13
2022-12-17T15:57:33.809Z,8.23
2022-12-17T16:00:00.658Z,9.13
2022-12-17T16:02:27.556Z,9.20
2022-12-17T16:04:54.759Z,8.77
2022-12-17T16:07:21.547Z,8.27
2022-12-17T16:09:48.325Z,9.55
2022-12-17T16:12:15.111Z,8.93
2022-12-17T16:14:41.913Z,8.25
2022-12-17T16:17:08.709Z,8.77
2022-12-17T16:19:36.303Z,8.82
2022-12-17T16:22:03.487Z,9.15
2022-12-17T16:24:30.370Z,8.77
2022-12-17T16:27:02.487Z,10.63
2022-12-17T16:29:31.233Z,8.27
2022-12-17T16:31:58.072Z,8.32
2022-12-17T16:34:24.971Z,9.70
2022-12-17T16:36:51.915Z,7.80
2022-12-17T16:39:19.981Z,7.63
2022-12-17T16:41:46.822Z,8.43
2022-12-17T16:44:13.759Z,7.63
2022-12-17T16:46:42.297Z,7.43
2022-12-17T16:49:16.431Z,7.30
2022-12-17T16:51:44.657Z,8.05
2022-12-17T16:54:15.063Z,6.80
2022-12-17T16:56:42.419Z,7.32
2022-12-17T16:59:10.325Z,8.45
2022-12-17T17:01:38.568Z,7.25
2022-12-17T17:04:07.571Z,7.90
2022-12-17T17:06:39.637Z,7.25
2022-12-17T17:09:07.052Z,6.65
2022-12-17T17:11:33.887Z,7.28
2022-12-17T17:14:00.978Z,7.00
2022-12-17T17:16:28.011Z,7.43
2022-12-17T17:18:54.939Z,7.93
2022-12-17T17:21:28.010Z,7.70
2022-12-17T17:24:20.737Z,8.77
2022-12-17T17:26:50.151Z,7.18
2022-12-17T17:29:17.105Z,6.80
2022-12-17T17:32:09.281Z,7.35
2022-12-17T17:34:30.686Z,6.82
2022-12-17T17:36:57.453Z,7.25
2022-12-17T17:39:24.297Z,7.30
2022-12-17T17:41:51.779Z,6.60
2022-12-17T17:44:18.575Z,6.82
2022-12-17T17:46:45.472Z,6.68
2022-12-17T17:49:12.588Z,6.85
2022-12-17T17:54:28.523Z,7.20
2022-12-17T17:56:55.346Z,6.80
2022-12-17T17:59:27.809Z,7.43
2022-12-17T18:01:58.035Z,6.65
2022-12-17T18:04:25.037Z,9.60
2022-12-17T18:07:23.766Z,7.10
2022-12-17T18:09:39.479Z,6.95
2022-12-17T18:12:26.480Z,9.20
2022-12-17T18:15:13.132Z,7.60
2022-12-17T18:17:40.170Z,7.30
2022-12-17T18:20:07.424Z,9.25
2022-12-17T18:22:34.243Z,8.07
2022-12-17T18:25:01.077Z,10.23
2022-12-17T18:27:28.130Z,8.90
2022-12-17T18:29:54.891Z,8.88
2022-12-17T18:32:21.694Z,8.40
2022-12-17T18:34:48.518Z,75.47
2022-12-17T18:37:15.415Z,109.85
2022-12-17T18:39:42.544Z,117.72
2022-12-17T18:42:28.062Z,104.75
2022-12-17T18:44:54.849Z,92.72
2022-12-17T18:47:21.773Z,85.05
2022-12-17T18:49:48.767Z,77.90
2022-12-17T18:52:17.219Z,73.43
2022-12-17T18:54:44.836Z,73.23
2022-12-17T18:57:11.931Z,66.63
2022-12-17T18:59:40.882Z,63.47
2022-12-17T19:02:12.210Z,58.83
2022-12-17T19:04:39.480Z,54.97
2022-12-17T19:07:06.341Z,50.63
2022-12-17T19:09:36.807Z,48.00
2022-12-17T19:12:08.596Z,45.97
2022-12-17T19:14:35.863Z,44.80
2022-12-17T19:17:03.019Z,45.28
2022-12-17T19:19:30.173Z,63.10
2022-12-17T19:22:07.056Z,104.43
2022-12-17T19:24:33.858Z,83.50
2022-12-17T19:27:00.686Z,71.75
2022-12-17T19:29:27.577Z,67.03
2022-12-17T19:31:54.525Z,64.05
2022-12-17T19:34:21.472Z,58.97
2022-12-17T19:36:48.495Z,55.72
2022-12-17T19:39:17.739Z,50.15
2022-12-17T19:41:44.908Z,47.50
2022-12-17T19:44:13.375Z,44.25
2022-12-17T19:46:40.822Z,42.58
2022-12-17T19:49:08.439Z,39.03
2022-12-17T19:51:35.221Z,38.53
2022-12-17T19:54:08.562Z,36.53
2022-12-17T19:56:36.109Z,33.55
2022-12-17T19:59:07.844Z,32.60
2022-12-17T20:01:37.692Z,30.60
2022-12-17T20:04:05.343Z,30.00
2022-12-17T20:06:33.848Z,30.35
2022-12-17T20:09:02.082Z,28.92
2022-12-17T20:11:35.258Z,28.08
2022-12-17T20:14:13.082Z,25.55
2022-12-17T20:16:44.032Z,24.40
2022-12-17T20:19:13.530Z,27.02
2022-12-17T20:21:40.677Z,24.73
2022-12-17T20:24:08.705Z,24.52
2022-12-17T20:26:36.769Z,22.15
2022-12-17T20:29:04.485Z,22.08
2022-12-17T20:31:32.042Z,24.25
2022-12-17T20:34:00.740Z,29.65
2022-12-17T20:36:27.835Z,55.63
2022-12-17T20:38:55.552Z,56.65
2022-12-17T20:41:25.321Z,48.20
2022-12-17T20:46:20.006Z,41.67
2022-12-17T20:48:46.901Z,39.50
2022-12-17T20:51:16.628Z,36.03
2022-12-17T20:56:13.470Z,34.78
2022-12-17T21:01:10.653Z,32.00
2022-12-17T21:03:37.651Z,29.20
2022-12-17T21:06:09.950Z,30.70
2022-12-17T21:08:37.456Z,27.92
2022-12-17T21:11:05.080Z,27.10
2022-12-17T21:13:32.181Z,25.13
2022-12-17T21:16:00.705Z,25.13
2022-12-17T21:18:28.319Z,23.80
2022-12-17T21:21:00.701Z,23.75
2022-12-17T21:23:28.858Z,22.58
2022-12-17T21:25:58.926Z,23.90
2022-12-17T21:28:26.615Z,66.88
2022-12-17T21:30:53.751Z,80.18
2022-12-17T21:33:20.666Z,79.00
2022-12-17T21:35:48.064Z,74.63
2022-12-17T21:38:15.102Z,72.53
2022-12-17T21:40:42.591Z,64.00
2022-12-17T21:43:10.137Z,56.25
2022-12-17T21:45:39.146Z,54.30
2022-12-17T21:48:11.861Z,48.83
2022-12-17T21:50:43.581Z,46.00
2022-12-17T21:53:12.022Z,42.33
2022-12-17T21:55:38.917Z,40.60
2022-12-17T21:58:06.269Z,50.67
2022-12-17T22:00:33.090Z,133.80
2022-12-17T22:03:00.013Z,149.18
2022-12-17T22:05:27.187Z,138.55
2022-12-17T22:07:54.435Z,125.20
2022-12-17T22:10:36.394Z,113.93
2022-12-17T22:13:30.850Z,101.40
2022-12-17T22:15:57.733Z,93.63
2022-12-17T22:18:24.955Z,88.07
2022-12-17T22:21:01.484Z,85.60
2022-12-17T22:23:28.387Z,83.35
2022-12-17T22:25:55.640Z,73.32
2022-12-17T22:28:22.541Z,73.85
2022-12-17T22:31:10.068Z,70.35
2022-12-17T22:34:33.471Z,62.50
2022-12-17T22:37:46.414Z,63.08
2022-12-17T22:42:35.442Z,60.17
2022-12-17T22:44:49.748Z,56.22
2022-12-17T22:45:10.501Z,53.85
2022-12-17T22:47:38.596Z,51.72
2022-12-17T22:50:05.870Z,50.13
2022-12-17T22:52:33.223Z,49.25
2022-12-17T22:55:00.235Z,46.72
2022-12-17T22:57:36.635Z,43.83
2022-12-17T23:00:09.974Z,43.35
2022-12-17T23:02:36.892Z,42.85
2022-12-17T23:05:03.813Z,41.67
2022-12-17T23:07:32.045Z,41.25
2022-12-17T23:09:59.112Z,40.45
2022-12-17T23:12:44.410Z,39.10
2022-12-17T23:15:11.353Z,37.83
2022-12-17T23:17:38.151Z,37.35
2022-12-17T23:20:05.628Z,107.00
2022-12-17T23:22:32.477Z,155.73
2022-12-17T23:24:59.261Z,131.05
2022-12-17T23:27:26.108Z,124.50
2022-12-17T23:29:52.918Z,110.00
2022-12-17T23:32:19.791Z,104.00
2022-12-17T23:34:46.619Z,99.45
2022-12-17T23:37:13.511Z,92.47
2022-12-17T23:39:40.378Z,89.40
2022-12-17T23:42:07.203Z,82.68
2022-12-17T23:44:33.987Z,79.30
2022-12-17T23:47:00.837Z,73.25
2022-12-17T23:49:27.748Z,68.65
2022-12-17T23:51:54.550Z,69.15
2022-12-17T23:54:21.370Z,66.78
2022-12-17T23:56:48.187Z,63.10
2022-12-17T23:59:14.984Z,61.38
